Terminal Aerodrome Forecast
Issued by NWS

Home | Current Version | Previous Version | Text Only | Print | Product List | Glossary On
Versions: 1 2 3 4 5 6 7 8 9 10 11 12 13 14
737
FTUS43 KPAH 222336
TAFCGI
TAF
KCGI 222336Z 2300/2324 02012KT P6SM OVC025
     FM230200 36009KT P6SM VCSH OVC035
     FM230600 01011KT P6SM BKN050
     FM231400 01015G24KT P6SM SKC=

USA.gov is the U.S. government's official web portal to all federal, state and local government web resources and services.